Sanderson, Texas
Current Conditions -  °F | °C
As of 11:53 PM on Tuesday 25 Nov 2014 (Local Time) from KFST Reporting Station
Clear Clear  
Wind Chill: 40°   Ceiling: Unl
Heat Index: 46°   Visibility: 10mi
Dew Point: 13°   Wind: 15mph
Humidity: 26%   Direction: 230°SW
Pressure: 30.18"   Gusts: NA
Location:  30.14°N, 102.4°W
Report Text: KFST 260553Z AUTO 23013KT 10SM CLR 08/M11 A3018 RMK AO2 SLP201 T00781106 10100 20067 401330011 55006
Loading
Personal Weather Stations






























Interactive Weather Map New forecast layout! Learn more

10-Day Weather Forecast

Advertisements
Track Severe Weather on mobile